sensor_id;sensor_type;location;lat;lon;timestamp;P1;durP1;ratioP1;P2;durP2;ratioP2
33844;SDS011;20145;43.118;25.694;2022-07-15T00:00:09;5.25;;;1.30;;
33844;SDS011;20145;43.118;25.694;2022-07-15T00:02:36;2.10;;;1.20;;
33844;SDS011;20145;43.118;25.694;2022-07-15T00:05:03;1.45;;;1.35;;
33844;SDS011;20145;43.118;25.694;2022-07-15T00:07:30;3.25;;;1.30;;
33844;SDS011;20145;43.118;25.694;2022-07-15T00:09:56;8.63;;;1.50;;
33844;SDS011;20145;43.118;25.694;2022-07-15T00:12:43;4.45;;;1.40;;
33844;SDS011;20145;43.118;25.694;2022-07-15T00:15:09;1.48;;;1.30;;
33844;SDS011;20145;43.118;25.694;2022-07-15T00:17:35;3.80;;;1.20;;
33844;SDS011;20145;43.118;25.694;2022-07-15T00:20:01;2.13;;;1.33;;
33844;SDS011;20145;43.118;25.694;2022-07-15T00:22:28;1.25;;;1.15;;
33844;SDS011;20145;43.118;25.694;2022-07-15T00:24:53;1.85;;;1.17;;
33844;SDS011;20145;43.118;25.694;2022-07-15T00:27:19;3.28;;;1.35;;
33844;SDS011;20145;43.118;25.694;2022-07-15T00:29:44;1.77;;;1.10;;
33844;SDS011;20145;43.118;25.694;2022-07-15T00:32:10;1.55;;;1.20;;
33844;SDS011;20145;43.118;25.694;2022-07-15T00:34:36;2.13;;;1.20;;
33844;SDS011;20145;43.118;25.694;2022-07-15T00:37:01;1.92;;;1.20;;
33844;SDS011;20145;43.118;25.694;2022-07-15T00:39:27;2.38;;;1.13;;
33844;SDS011;20145;43.118;25.694;2022-07-15T00:41:52;1.50;;;1.40;;
33844;SDS011;20145;43.118;25.694;2022-07-15T00:44:18;2.45;;;1.40;;
33844;SDS011;20145;43.118;25.694;2022-07-15T00:46:44;2.13;;;1.40;;
33844;SDS011;20145;43.118;25.694;2022-07-15T00:49:10;2.50;;;1.50;;
33844;SDS011;20145;43.118;25.694;2022-07-15T00:51:37;2.03;;;1.60;;
33844;SDS011;20145;43.118;25.694;2022-07-15T00:56:37;3.38;;;1.35;;
33844;SDS011;20145;43.118;25.694;2022-07-15T00:59:05;1.35;;;1.15;;
33844;SDS011;20145;43.118;25.694;2022-07-15T01:01:32;2.17;;;1.20;;
33844;SDS011;20145;43.118;25.694;2022-07-15T01:04:01;3.40;;;1.48;;
33844;SDS011;20145;43.118;25.694;2022-07-15T01:06:28;1.60;;;1.50;;
33844;SDS011;20145;43.118;25.694;2022-07-15T01:08:54;4.85;;;1.80;;
33844;SDS011;20145;43.118;25.694;2022-07-15T01:11:20;1.40;;;1.30;;
33844;SDS011;20145;43.118;25.694;2022-07-15T01:13:45;1.65;;;1.20;;
33844;SDS011;20145;43.118;25.694;2022-07-15T01:16:11;1.50;;;1.40;;
33844;SDS011;20145;43.118;25.694;2022-07-15T01:18:37;1.77;;;1.42;;
33844;SDS011;20145;43.118;25.694;2022-07-15T01:21:03;3.15;;;1.40;;
33844;SDS011;20145;43.118;25.694;2022-07-15T01:23:28;1.65;;;1.13;;
33844;SDS011;20145;43.118;25.694;2022-07-15T01:25:54;1.75;;;1.50;;
33844;SDS011;20145;43.118;25.694;2022-07-15T01:28:21;1.77;;;1.67;;
33844;SDS011;20145;43.118;25.694;2022-07-15T01:30:47;1.52;;;1.40;;
33844;SDS011;20145;43.118;25.694;2022-07-15T01:33:13;1.90;;;1.20;;
33844;SDS011;20145;43.118;25.694;2022-07-15T01:35:39;3.05;;;1.17;;
33844;SDS011;20145;43.118;25.694;2022-07-15T01:38:04;2.92;;;1.00;;
33844;SDS011;20145;43.118;25.694;2022-07-15T01:40:30;1.70;;;1.20;;
33844;SDS011;20145;43.118;25.694;2022-07-15T01:42:56;2.47;;;1.17;;
33844;SDS011;20145;43.118;25.694;2022-07-15T01:45:21;1.63;;;1.33;;
33844;SDS011;20145;43.118;25.694;2022-07-15T01:47:48;1.40;;;1.30;;
33844;SDS011;20145;43.118;25.694;2022-07-15T01:50:15;1.80;;;1.52;;
33844;SDS011;20145;43.118;25.694;2022-07-15T01:52:41;1.55;;;1.45;;
33844;SDS011;20145;43.118;25.694;2022-07-15T01:55:07;3.30;;;1.10;;
33844;SDS011;20145;43.118;25.694;2022-07-15T01:57:34;2.53;;;1.20;;
33844;SDS011;20145;43.118;25.694;2022-07-15T01:59:59;2.47;;;1.13;;
33844;SDS011;20145;43.118;25.694;2022-07-15T02:02:25;2.22;;;1.70;;
33844;SDS011;20145;43.118;25.694;2022-07-15T02:04:51;2.17;;;1.17;;
33844;SDS011;20145;43.118;25.694;2022-07-15T02:07:16;2.65;;;1.40;;
33844;SDS011;20145;43.118;25.694;2022-07-15T02:09:42;1.25;;;1.02;;
33844;SDS011;20145;43.118;25.694;2022-07-15T02:12:07;3.22;;;1.00;;
33844;SDS011;20145;43.118;25.694;2022-07-15T02:14:33;2.15;;;1.50;;
33844;SDS011;20145;43.118;25.694;2022-07-15T02:17:00;2.97;;;1.13;;
33844;SDS011;20145;43.118;25.694;2022-07-15T02:19:27;3.83;;;1.30;;
33844;SDS011;20145;43.118;25.694;2022-07-15T02:21:53;1.60;;;1.17;;
33844;SDS011;20145;43.118;25.694;2022-07-15T02:24:18;1.88;;;1.70;;
33844;SDS011;20145;43.118;25.694;2022-07-15T02:26:45;2.25;;;1.30;;
33844;SDS011;20145;43.118;25.694;2022-07-15T02:29:11;3.03;;;1.40;;
33844;SDS011;20145;43.118;25.694;2022-07-15T02:31:38;2.85;;;1.30;;
33844;SDS011;20145;43.118;25.694;2022-07-15T02:34:04;1.33;;;1.17;;
33844;SDS011;20145;43.118;25.694;2022-07-15T02:36:30;1.65;;;1.20;;
33844;SDS011;20145;43.118;25.694;2022-07-15T02:38:55;3.58;;;1.42;;
33844;SDS011;20145;43.118;25.694;2022-07-15T02:41:22;1.30;;;1.20;;
33844;SDS011;20145;43.118;25.694;2022-07-15T02:43:48;5.40;;;1.33;;
33844;SDS011;20145;43.118;25.694;2022-07-15T02:46:14;2.38;;;1.50;;
33844;SDS011;20145;43.118;25.694;2022-07-15T02:48:40;2.28;;;1.17;;
33844;SDS011;20145;43.118;25.694;2022-07-15T02:51:06;4.47;;;1.50;;
33844;SDS011;20145;43.118;25.694;2022-07-15T02:53:32;2.38;;;1.45;;
33844;SDS011;20145;43.118;25.694;2022-07-15T02:55:58;2.35;;;1.40;;
33844;SDS011;20145;43.118;25.694;2022-07-15T02:58:24;1.38;;;1.27;;
33844;SDS011;20145;43.118;25.694;2022-07-15T03:00:50;2.28;;;1.50;;
33844;SDS011;20145;43.118;25.694;2022-07-15T03:03:16;4.97;;;1.52;;
33844;SDS011;20145;43.118;25.694;2022-07-15T03:05:42;5.75;;;1.45;;
33844;SDS011;20145;43.118;25.694;2022-07-15T03:08:07;3.50;;;1.50;;
33844;SDS011;20145;43.118;25.694;2022-07-15T03:10:33;1.48;;;1.38;;
33844;SDS011;20145;43.118;25.694;2022-07-15T03:12:58;2.58;;;1.42;;
33844;SDS011;20145;43.118;25.694;2022-07-15T03:15:25;3.58;;;1.40;;
33844;SDS011;20145;43.118;25.694;2022-07-15T03:17:51;3.63;;;1.65;;
33844;SDS011;20145;43.118;25.694;2022-07-15T03:20:16;2.20;;;1.70;;
33844;SDS011;20145;43.118;25.694;2022-07-15T03:22:42;2.38;;;1.25;;
33844;SDS011;20145;43.118;25.694;2022-07-15T03:25:07;3.08;;;1.33;;
33844;SDS011;20145;43.118;25.694;2022-07-15T03:27:33;5.13;;;1.30;;
33844;SDS011;20145;43.118;25.694;2022-07-15T03:29:59;1.33;;;1.20;;
33844;SDS011;20145;43.118;25.694;2022-07-15T03:32:26;1.73;;;1.30;;
33844;SDS011;20145;43.118;25.694;2022-07-15T03:34:52;11.02;;;1.88;;
33844;SDS011;20145;43.118;25.694;2022-07-15T03:37:17;2.25;;;1.35;;
33844;SDS011;20145;43.118;25.694;2022-07-15T03:39:43;4.20;;;1.52;;
33844;SDS011;20145;43.118;25.694;2022-07-15T03:42:09;2.95;;;1.20;;
33844;SDS011;20145;43.118;25.694;2022-07-15T03:44:34;3.05;;;1.02;;
33844;SDS011;20145;43.118;25.694;2022-07-15T03:47:00;2.92;;;1.23;;
33844;SDS011;20145;43.118;25.694;2022-07-15T03:49:26;2.00;;;1.80;;
33844;SDS011;20145;43.118;25.694;2022-07-15T03:51:52;4.93;;;2.50;;
33844;SDS011;20145;43.118;25.694;2022-07-15T03:54:18;1.70;;;1.60;;
33844;SDS011;20145;43.118;25.694;2022-07-15T03:56:44;6.47;;;2.40;;
33844;SDS011;20145;43.118;25.694;2022-07-15T03:59:13;7.95;;;1.83;;
33844;SDS011;20145;43.118;25.694;2022-07-15T04:01:39;11.82;;;3.47;;
33844;SDS011;20145;43.118;25.694;2022-07-15T04:04:05;11.68;;;3.65;;
33844;SDS011;20145;43.118;25.694;2022-07-15T04:06:31;11.82;;;3.22;;
33844;SDS011;20145;43.118;25.694;2022-07-15T04:08:58;10.15;;;3.20;;
33844;SDS011;20145;43.118;25.694;2022-07-15T04:11:23;10.85;;;3.50;;
33844;SDS011;20145;43.118;25.694;2022-07-15T04:13:50;16.00;;;3.05;;
33844;SDS011;20145;43.118;25.694;2022-07-15T04:16:15;11.32;;;3.15;;
33844;SDS011;20145;43.118;25.694;2022-07-15T04:18:42;6.22;;;3.05;;
33844;SDS011;20145;43.118;25.694;2022-07-15T04:21:08;11.70;;;3.05;;
33844;SDS011;20145;43.118;25.694;2022-07-15T04:23:34;8.07;;;3.00;;
33844;SDS011;20145;43.118;25.694;2022-07-15T04:26:00;6.80;;;2.38;;
33844;SDS011;20145;43.118;25.694;2022-07-15T04:28:25;9.38;;;2.50;;
33844;SDS011;20145;43.118;25.694;2022-07-15T04:30:51;6.72;;;2.58;;
33844;SDS011;20145;43.118;25.694;2022-07-15T04:33:17;8.57;;;2.60;;
33844;SDS011;20145;43.118;25.694;2022-07-15T04:35:45;11.18;;;3.30;;
33844;SDS011;20145;43.118;25.694;2022-07-15T04:38:11;3.88;;;2.00;;
33844;SDS011;20145;43.118;25.694;2022-07-15T04:40:37;12.18;;;3.00;;
33844;SDS011;20145;43.118;25.694;2022-07-15T04:43:06;6.28;;;2.10;;
33844;SDS011;20145;43.118;25.694;2022-07-15T04:45:32;11.18;;;3.88;;
33844;SDS011;20145;43.118;25.694;2022-07-15T04:47:58;10.40;;;2.60;;
33844;SDS011;20145;43.118;25.694;2022-07-15T04:50:24;11.57;;;3.33;;
33844;SDS011;20145;43.118;25.694;2022-07-15T04:53:08;8.60;;;3.08;;
33844;SDS011;20145;43.118;25.694;2022-07-15T04:55:33;14.05;;;3.90;;
33844;SDS011;20145;43.118;25.694;2022-07-15T04:57:59;12.25;;;3.63;;
33844;SDS011;20145;43.118;25.694;2022-07-15T05:00:25;10.77;;;2.90;;
33844;SDS011;20145;43.118;25.694;2022-07-15T05:02:51;11.10;;;3.17;;
33844;SDS011;20145;43.118;25.694;2022-07-15T05:05:16;11.48;;;2.60;;
33844;SDS011;20145;43.118;25.694;2022-07-15T05:07:44;8.95;;;2.42;;
33844;SDS011;20145;43.118;25.694;2022-07-15T05:10:10;6.15;;;2.42;;
33844;SDS011;20145;43.118;25.694;2022-07-15T05:12:37;7.43;;;2.45;;
33844;SDS011;20145;43.118;25.694;2022-07-15T05:15:03;8.48;;;2.40;;
33844;SDS011;20145;43.118;25.694;2022-07-15T05:17:29;6.07;;;2.30;;
33844;SDS011;20145;43.118;25.694;2022-07-15T05:19:55;6.90;;;2.00;;
33844;SDS011;20145;43.118;25.694;2022-07-15T05:22:21;5.30;;;2.30;;
33844;SDS011;20145;43.118;25.694;2022-07-15T05:24:47;11.38;;;2.88;;
33844;SDS011;20145;43.118;25.694;2022-07-15T05:27:14;4.43;;;2.30;;
33844;SDS011;20145;43.118;25.694;2022-07-15T05:29:39;4.18;;;2.50;;
33844;SDS011;20145;43.118;25.694;2022-07-15T05:32:05;7.30;;;2.38;;
33844;SDS011;20145;43.118;25.694;2022-07-15T05:34:31;7.80;;;2.15;;
33844;SDS011;20145;43.118;25.694;2022-07-15T05:36:57;17.10;;;7.97;;
33844;SDS011;20145;43.118;25.694;2022-07-15T05:39:23;10.63;;;3.85;;
33844;SDS011;20145;43.118;25.694;2022-07-15T05:41:48;4.70;;;2.40;;
33844;SDS011;20145;43.118;25.694;2022-07-15T05:44:14;10.25;;;4.15;;
33844;SDS011;20145;43.118;25.694;2022-07-15T05:46:40;7.35;;;2.45;;
33844;SDS011;20145;43.118;25.694;2022-07-15T05:49:05;11.07;;;2.78;;
33844;SDS011;20145;43.118;25.694;2022-07-15T05:51:31;8.00;;;2.28;;
33844;SDS011;20145;43.118;25.694;2022-07-15T05:53:59;5.43;;;1.90;;
33844;SDS011;20145;43.118;25.694;2022-07-15T05:56:25;3.95;;;2.03;;
33844;SDS011;20145;43.118;25.694;2022-07-15T05:58:51;7.47;;;2.10;;
33844;SDS011;20145;43.118;25.694;2022-07-15T06:01:16;7.57;;;1.80;;
33844;SDS011;20145;43.118;25.694;2022-07-15T06:03:42;8.00;;;2.00;;
33844;SDS011;20145;43.118;25.694;2022-07-15T06:06:07;3.15;;;1.75;;
33844;SDS011;20145;43.118;25.694;2022-07-15T06:08:33;6.78;;;1.70;;
33844;SDS011;20145;43.118;25.694;2022-07-15T06:11:00;4.70;;;1.60;;
33844;SDS011;20145;43.118;25.694;2022-07-15T06:13:26;5.60;;;1.75;;
33844;SDS011;20145;43.118;25.694;2022-07-15T06:15:52;5.93;;;2.33;;
33844;SDS011;20145;43.118;25.694;2022-07-15T06:18:18;3.28;;;1.30;;
33844;SDS011;20145;43.118;25.694;2022-07-15T06:20:44;8.65;;;4.72;;
33844;SDS011;20145;43.118;25.694;2022-07-15T06:23:10;10.73;;;4.95;;
33844;SDS011;20145;43.118;25.694;2022-07-15T06:25:36;8.30;;;1.83;;
33844;SDS011;20145;43.118;25.694;2022-07-15T06:28:02;4.00;;;2.10;;
33844;SDS011;20145;43.118;25.694;2022-07-15T06:30:28;3.22;;;1.92;;
33844;SDS011;20145;43.118;25.694;2022-07-15T06:32:53;4.63;;;1.80;;
33844;SDS011;20145;43.118;25.694;2022-07-15T06:35:19;2.97;;;1.52;;
33844;SDS011;20145;43.118;25.694;2022-07-15T06:37:45;3.22;;;1.40;;
33844;SDS011;20145;43.118;25.694;2022-07-15T06:40:11;5.38;;;1.63;;
33844;SDS011;20145;43.118;25.694;2022-07-15T06:42:37;1.92;;;1.25;;
33844;SDS011;20145;43.118;25.694;2022-07-15T06:45:03;2.35;;;1.52;;
33844;SDS011;20145;43.118;25.694;2022-07-15T06:47:30;4.53;;;1.70;;
33844;SDS011;20145;43.118;25.694;2022-07-15T06:49:56;3.45;;;1.35;;
33844;SDS011;20145;43.118;25.694;2022-07-15T06:52:22;6.28;;;1.50;;
33844;SDS011;20145;43.118;25.694;2022-07-15T06:54:47;1.63;;;1.20;;
33844;SDS011;20145;43.118;25.694;2022-07-15T06:57:13;3.03;;;1.50;;
33844;SDS011;20145;43.118;25.694;2022-07-15T06:59:42;6.75;;;1.65;;
33844;SDS011;20145;43.118;25.694;2022-07-15T07:02:08;6.15;;;1.70;;
33844;SDS011;20145;43.118;25.694;2022-07-15T07:04:34;3.45;;;1.17;;
33844;SDS011;20145;43.118;25.694;2022-07-15T07:06:59;1.30;;;1.20;;
33844;SDS011;20145;43.118;25.694;2022-07-15T07:09:25;6.20;;;1.58;;
33844;SDS011;20145;43.118;25.694;2022-07-15T07:11:51;7.00;;;1.52;;
33844;SDS011;20145;43.118;25.694;2022-07-15T07:14:17;4.28;;;1.40;;
33844;SDS011;20145;43.118;25.694;2022-07-15T07:16:43;4.63;;;1.50;;
33844;SDS011;20145;43.118;25.694;2022-07-15T07:19:08;3.10;;;2.08;;
33844;SDS011;20145;43.118;25.694;2022-07-15T07:21:35;3.30;;;1.55;;
33844;SDS011;20145;43.118;25.694;2022-07-15T07:24:01;5.65;;;1.10;;
33844;SDS011;20145;43.118;25.694;2022-07-15T07:28:57;5.55;;;1.60;;
33844;SDS011;20145;43.118;25.694;2022-07-15T07:31:23;6.80;;;1.98;;
33844;SDS011;20145;43.118;25.694;2022-07-15T07:33:53;7.70;;;1.88;;
33844;SDS011;20145;43.118;25.694;2022-07-15T07:36:20;1.70;;;1.00;;
33844;SDS011;20145;43.118;25.694;2022-07-15T07:38:46;1.98;;;1.40;;
33844;SDS011;20145;43.118;25.694;2022-07-15T07:41:13;3.65;;;1.35;;
33844;SDS011;20145;43.118;25.694;2022-07-15T07:43:38;5.13;;;1.45;;
33844;SDS011;20145;43.118;25.694;2022-07-15T07:46:04;3.55;;;1.58;;
33844;SDS011;20145;43.118;25.694;2022-07-15T07:48:30;3.38;;;1.25;;
33844;SDS011;20145;43.118;25.694;2022-07-15T07:50:56;7.18;;;1.70;;
33844;SDS011;20145;43.118;25.694;2022-07-15T07:53:23;5.28;;;1.60;;
33844;SDS011;20145;43.118;25.694;2022-07-15T07:55:49;4.47;;;2.80;;
33844;SDS011;20145;43.118;25.694;2022-07-15T07:58:15;3.63;;;1.80;;
33844;SDS011;20145;43.118;25.694;2022-07-15T08:00:43;7.72;;;1.30;;
33844;SDS011;20145;43.118;25.694;2022-07-15T08:03:10;6.25;;;1.52;;
33844;SDS011;20145;43.118;25.694;2022-07-15T08:05:35;2.22;;;1.40;;
33844;SDS011;20145;43.118;25.694;2022-07-15T08:08:09;4.50;;;1.77;;
33844;SDS011;20145;43.118;25.694;2022-07-15T08:10:35;2.05;;;1.13;;
33844;SDS011;20145;43.118;25.694;2022-07-15T08:13:02;4.45;;;1.60;;
33844;SDS011;20145;43.118;25.694;2022-07-15T08:15:27;6.63;;;2.28;;
33844;SDS011;20145;43.118;25.694;2022-07-15T08:17:53;5.32;;;1.35;;
33844;SDS011;20145;43.118;25.694;2022-07-15T08:20:19;2.95;;;1.40;;
33844;SDS011;20145;43.118;25.694;2022-07-15T08:22:45;2.72;;;1.30;;
33844;SDS011;20145;43.118;25.694;2022-07-15T08:25:11;3.45;;;1.58;;
33844;SDS011;20145;43.118;25.694;2022-07-15T08:27:36;4.90;;;1.52;;
33844;SDS011;20145;43.118;25.694;2022-07-15T08:30:03;9.52;;;1.52;;
33844;SDS011;20145;43.118;25.694;2022-07-15T08:32:29;2.85;;;1.08;;
33844;SDS011;20145;43.118;25.694;2022-07-15T08:34:54;1.65;;;1.10;;
33844;SDS011;20145;43.118;25.694;2022-07-15T08:37:20;2.13;;;1.25;;
33844;SDS011;20145;43.118;25.694;2022-07-15T08:39:46;7.80;;;1.33;;
33844;SDS011;20145;43.118;25.694;2022-07-15T08:42:12;7.60;;;3.47;;
33844;SDS011;20145;43.118;25.694;2022-07-15T08:44:38;8.55;;;3.55;;
33844;SDS011;20145;43.118;25.694;2022-07-15T08:47:05;7.85;;;2.28;;
33844;SDS011;20145;43.118;25.694;2022-07-15T08:49:32;5.80;;;1.15;;
33844;SDS011;20145;43.118;25.694;2022-07-15T08:52:00;4.40;;;1.27;;
33844;SDS011;20145;43.118;25.694;2022-07-15T08:54:26;3.60;;;1.10;;
33844;SDS011;20145;43.118;25.694;2022-07-15T08:56:52;10.77;;;1.70;;
33844;SDS011;20145;43.118;25.694;2022-07-15T08:59:18;5.90;;;1.15;;
33844;SDS011;20145;43.118;25.694;2022-07-15T09:01:46;5.35;;;1.70;;
33844;SDS011;20145;43.118;25.694;2022-07-15T09:04:13;3.15;;;1.10;;
33844;SDS011;20145;43.118;25.694;2022-07-15T09:06:41;8.05;;;1.65;;
33844;SDS011;20145;43.118;25.694;2022-07-15T09:12:00;6.22;;;2.17;;
33844;SDS011;20145;43.118;25.694;2022-07-15T09:14:28;7.05;;;1.92;;
33844;SDS011;20145;43.118;25.694;2022-07-15T09:17:18;7.07;;;1.17;;
33844;SDS011;20145;43.118;25.694;2022-07-15T09:22:30;3.67;;;1.33;;
33844;SDS011;20145;43.118;25.694;2022-07-15T09:25:06;5.75;;;1.20;;
33844;SDS011;20145;43.118;25.694;2022-07-15T09:27:38;5.38;;;1.27;;
33844;SDS011;20145;43.118;25.694;2022-07-15T09:30:25;2.40;;;0.77;;
33844;SDS011;20145;43.118;25.694;2022-07-15T09:33:21;2.85;;;0.70;;
33844;SDS011;20145;43.118;25.694;2022-07-15T09:38:45;2.13;;;0.67;;
33844;SDS011;20145;43.118;25.694;2022-07-15T09:41:23;2.47;;;1.17;;
33844;SDS011;20145;43.118;25.694;2022-07-15T09:44:05;4.57;;;1.10;;
33844;SDS011;20145;43.118;25.694;2022-07-15T09:51:53;2.83;;;1.48;;
33844;SDS011;20145;43.118;25.694;2022-07-15T09:54:36;2.72;;;1.20;;
33844;SDS011;20145;43.118;25.694;2022-07-15T09:57:10;3.13;;;1.13;;
33844;SDS011;20145;43.118;25.694;2022-07-15T09:59:40;1.90;;;1.10;;
33844;SDS011;20145;43.118;25.694;2022-07-15T10:02:06;2.75;;;0.85;;
33844;SDS011;20145;43.118;25.694;2022-07-15T10:04:32;2.13;;;0.80;;
33844;SDS011;20145;43.118;25.694;2022-07-15T10:06:58;5.00;;;1.10;;
33844;SDS011;20145;43.118;25.694;2022-07-15T10:09:29;3.03;;;0.90;;
33844;SDS011;20145;43.118;25.694;2022-07-15T10:11:57;7.25;;;0.98;;
33844;SDS011;20145;43.118;25.694;2022-07-15T10:30:20;2.33;;;0.80;;
33844;SDS011;20145;43.118;25.694;2022-07-15T10:35:43;3.20;;;1.10;;
33844;SDS011;20145;43.118;25.694;2022-07-15T10:41:10;4.10;;;0.90;;
33844;SDS011;20145;43.118;25.694;2022-07-15T10:48:41;1.83;;;1.00;;
33844;SDS011;20145;43.118;25.694;2022-07-15T10:51:07;4.22;;;0.95;;
33844;SDS011;20145;43.118;25.694;2022-07-15T10:53:32;3.10;;;0.80;;
33844;SDS011;20145;43.118;25.694;2022-07-15T10:56:27;3.20;;;1.48;;
33844;SDS011;20145;43.118;25.694;2022-07-15T11:01:50;2.47;;;0.93;;
33844;SDS011;20145;43.118;25.694;2022-07-15T11:04:35;3.72;;;1.00;;
33844;SDS011;20145;43.118;25.694;2022-07-15T11:12:56;1.60;;;1.10;;
33844;SDS011;20145;43.118;25.694;2022-07-15T11:15:03;1.40;;;1.13;;
33844;SDS011;20145;43.118;25.694;2022-07-15T11:19:58;1.40;;;1.00;;
33844;SDS011;20145;43.118;25.694;2022-07-15T11:22:29;2.63;;;0.73;;
33844;SDS011;20145;43.118;25.694;2022-07-15T11:24:55;2.63;;;1.00;;
33844;SDS011;20145;43.118;25.694;2022-07-15T11:27:22;3.58;;;1.13;;
33844;SDS011;20145;43.118;25.694;2022-07-15T11:29:56;3.70;;;0.98;;
33844;SDS011;20145;43.118;25.694;2022-07-15T11:32:30;2.38;;;1.20;;
33844;SDS011;20145;43.118;25.694;2022-07-15T11:34:57;2.00;;;1.13;;
33844;SDS011;20145;43.118;25.694;2022-07-15T11:37:31;2.72;;;0.90;;
33844;SDS011;20145;43.118;25.694;2022-07-15T11:42:34;2.47;;;0.82;;
33844;SDS011;20145;43.118;25.694;2022-07-15T11:45:32;2.13;;;0.50;;
33844;SDS011;20145;43.118;25.694;2022-07-15T11:48:00;2.65;;;1.13;;
33844;SDS011;20145;43.118;25.694;2022-07-15T11:50:27;1.08;;;0.70;;
33844;SDS011;20145;43.118;25.694;2022-07-15T11:52:57;2.40;;;0.95;;
33844;SDS011;20145;43.118;25.694;2022-07-15T11:55:23;5.38;;;1.30;;
33844;SDS011;20145;43.118;25.694;2022-07-15T11:57:49;1.75;;;1.30;;
33844;SDS011;20145;43.118;25.694;2022-07-15T12:00:17;4.40;;;0.85;;
33844;SDS011;20145;43.118;25.694;2022-07-15T12:03:04;4.97;;;0.73;;
33844;SDS011;20145;43.118;25.694;2022-07-15T12:05:34;13.57;;;2.42;;
33844;SDS011;20145;43.118;25.694;2022-07-15T12:08:00;2.92;;;1.08;;
33844;SDS011;20145;43.118;25.694;2022-07-15T12:10:35;3.60;;;1.05;;
33844;SDS011;20145;43.118;25.694;2022-07-15T12:13:03;4.05;;;1.00;;
33844;SDS011;20145;43.118;25.694;2022-07-15T12:15:33;2.60;;;0.80;;
33844;SDS011;20145;43.118;25.694;2022-07-15T12:18:00;2.87;;;0.80;;
33844;SDS011;20145;43.118;25.694;2022-07-15T12:20:28;3.15;;;0.80;;
33844;SDS011;20145;43.118;25.694;2022-07-15T12:23:04;2.38;;;0.88;;
33844;SDS011;20145;43.118;25.694;2022-07-15T12:25:31;1.48;;;0.70;;
33844;SDS011;20145;43.118;25.694;2022-07-15T12:27:56;2.00;;;0.80;;
33844;SDS011;20145;43.118;25.694;2022-07-15T12:30:30;2.17;;;0.80;;
33844;SDS011;20145;43.118;25.694;2022-07-15T12:36:13;1.65;;;0.80;;
33844;SDS011;20145;43.118;25.694;2022-07-15T12:38:41;8.68;;;0.75;;
33844;SDS011;20145;43.118;25.694;2022-07-15T12:41:29;1.17;;;1.08;;
33844;SDS011;20145;43.118;25.694;2022-07-15T12:43:54;2.35;;;0.90;;
33844;SDS011;20145;43.118;25.694;2022-07-15T12:49:40;3.80;;;0.67;;
33844;SDS011;20145;43.118;25.694;2022-07-15T12:52:13;2.92;;;1.27;;
33844;SDS011;20145;43.118;25.694;2022-07-15T12:57:32;1.98;;;1.30;;
33844;SDS011;20145;43.118;25.694;2022-07-15T13:02:54;4.93;;;1.25;;
33844;SDS011;20145;43.118;25.694;2022-07-15T13:07:57;4.50;;;1.10;;
33844;SDS011;20145;43.118;25.694;2022-07-15T13:10:24;2.50;;;1.38;;
33844;SDS011;20145;43.118;25.694;2022-07-15T13:12:51;1.55;;;0.90;;
33844;SDS011;20145;43.118;25.694;2022-07-15T13:15:17;2.65;;;0.75;;
33844;SDS011;20145;43.118;25.694;2022-07-15T13:17:43;3.63;;;1.17;;
33844;SDS011;20145;43.118;25.694;2022-07-15T13:20:08;3.05;;;0.93;;
33844;SDS011;20145;43.118;25.694;2022-07-15T13:22:35;3.63;;;1.00;;
33844;SDS011;20145;43.118;25.694;2022-07-15T13:25:00;8.10;;;1.20;;
33844;SDS011;20145;43.118;25.694;2022-07-15T13:27:26;4.20;;;1.20;;
33844;SDS011;20145;43.118;25.694;2022-07-15T13:29:51;1.42;;;0.90;;
33844;SDS011;20145;43.118;25.694;2022-07-15T13:32:17;2.55;;;1.10;;
33844;SDS011;20145;43.118;25.694;2022-07-15T13:34:43;5.93;;;1.05;;
33844;SDS011;20145;43.118;25.694;2022-07-15T13:37:08;3.63;;;0.95;;
33844;SDS011;20145;43.118;25.694;2022-07-15T13:39:34;2.80;;;0.80;;
33844;SDS011;20145;43.118;25.694;2022-07-15T13:42:00;3.83;;;0.90;;
33844;SDS011;20145;43.118;25.694;2022-07-15T13:44:26;2.85;;;1.35;;
33844;SDS011;20145;43.118;25.694;2022-07-15T13:46:51;3.70;;;1.60;;
33844;SDS011;20145;43.118;25.694;2022-07-15T13:49:17;2.58;;;0.95;;
33844;SDS011;20145;43.118;25.694;2022-07-15T13:51:42;3.70;;;1.25;;
33844;SDS011;20145;43.118;25.694;2022-07-15T13:54:08;2.13;;;0.95;;
33844;SDS011;20145;43.118;25.694;2022-07-15T13:56:34;1.75;;;0.70;;
33844;SDS011;20145;43.118;25.694;2022-07-15T13:59:01;2.25;;;0.77;;
33844;SDS011;20145;43.118;25.694;2022-07-15T14:01:28;0.95;;;0.85;;
33844;SDS011;20145;43.118;25.694;2022-07-15T14:03:56;1.27;;;0.63;;
33844;SDS011;20145;43.118;25.694;2022-07-15T14:06:22;1.73;;;1.25;;
33844;SDS011;20145;43.118;25.694;2022-07-15T14:08:48;4.93;;;0.90;;
33844;SDS011;20145;43.118;25.694;2022-07-15T14:11:14;1.05;;;0.80;;
33844;SDS011;20145;43.118;25.694;2022-07-15T14:13:40;1.23;;;0.90;;
33844;SDS011;20145;43.118;25.694;2022-07-15T14:16:05;1.25;;;0.70;;
33844;SDS011;20145;43.118;25.694;2022-07-15T14:18:31;2.85;;;1.48;;
33844;SDS011;20145;43.118;25.694;2022-07-15T14:21:11;1.35;;;0.95;;
33844;SDS011;20145;43.118;25.694;2022-07-15T14:23:37;3.08;;;1.05;;
33844;SDS011;20145;43.118;25.694;2022-07-15T14:26:03;8.93;;;1.30;;
33844;SDS011;20145;43.118;25.694;2022-07-15T14:28:29;4.65;;;1.13;;
33844;SDS011;20145;43.118;25.694;2022-07-15T14:30:55;7.75;;;1.08;;
33844;SDS011;20145;43.118;25.694;2022-07-15T14:33:21;0.90;;;0.82;;
33844;SDS011;20145;43.118;25.694;2022-07-15T14:35:46;4.53;;;1.58;;
33844;SDS011;20145;43.118;25.694;2022-07-15T14:38:12;2.08;;;1.10;;
33844;SDS011;20145;43.118;25.694;2022-07-15T14:40:38;3.80;;;0.90;;
33844;SDS011;20145;43.118;25.694;2022-07-15T14:43:03;1.48;;;0.77;;
33844;SDS011;20145;43.118;25.694;2022-07-15T14:45:29;2.45;;;1.08;;
33844;SDS011;20145;43.118;25.694;2022-07-15T14:47:55;4.45;;;0.90;;
33844;SDS011;20145;43.118;25.694;2022-07-15T14:50:20;6.70;;;1.10;;
33844;SDS011;20145;43.118;25.694;2022-07-15T14:52:46;3.63;;;0.88;;
33844;SDS011;20145;43.118;25.694;2022-07-15T14:55:12;1.83;;;0.90;;
33844;SDS011;20145;43.118;25.694;2022-07-15T14:57:38;4.10;;;0.90;;
33844;SDS011;20145;43.118;25.694;2022-07-15T15:00:04;2.95;;;0.80;;
33844;SDS011;20145;43.118;25.694;2022-07-15T15:02:30;3.38;;;1.10;;
33844;SDS011;20145;43.118;25.694;2022-07-15T15:04:56;4.15;;;1.30;;
33844;SDS011;20145;43.118;25.694;2022-07-15T15:07:21;3.35;;;1.17;;
33844;SDS011;20145;43.118;25.694;2022-07-15T15:09:47;1.35;;;1.00;;
33844;SDS011;20145;43.118;25.694;2022-07-15T15:12:12;1.92;;;1.25;;
33844;SDS011;20145;43.118;25.694;2022-07-15T15:14:38;1.20;;;1.10;;
33844;SDS011;20145;43.118;25.694;2022-07-15T15:17:04;2.30;;;1.10;;
33844;SDS011;20145;43.118;25.694;2022-07-15T15:19:30;4.05;;;0.93;;
33844;SDS011;20145;43.118;25.694;2022-07-15T15:21:56;3.53;;;1.15;;
33844;SDS011;20145;43.118;25.694;2022-07-15T15:24:22;2.10;;;1.10;;
33844;SDS011;20145;43.118;25.694;2022-07-15T15:26:50;2.65;;;1.25;;
33844;SDS011;20145;43.118;25.694;2022-07-15T15:29:16;2.53;;;1.25;;
33844;SDS011;20145;43.118;25.694;2022-07-15T15:31:42;1.85;;;1.17;;
33844;SDS011;20145;43.118;25.694;2022-07-15T15:34:08;3.75;;;1.20;;
33844;SDS011;20145;43.118;25.694;2022-07-15T15:36:33;3.75;;;1.00;;
33844;SDS011;20145;43.118;25.694;2022-07-15T15:38:59;2.72;;;1.25;;
33844;SDS011;20145;43.118;25.694;2022-07-15T15:41:25;5.07;;;1.10;;
33844;SDS011;20145;43.118;25.694;2022-07-15T15:43:51;2.55;;;1.38;;
33844;SDS011;20145;43.118;25.694;2022-07-15T15:46:17;2.38;;;0.98;;